Parker, Indiana
Current Conditions -  °F | °C
As of 7:53 PM on Friday 19 Dec 2014 (Local Time) from KMIE Reporting Station
Overcast Overcast  
Wind Chill: 29°   Ceiling: 2900
Heat Index: 29°   Visibility: 7mi
Dew Point: 25°   Wind: 0mph
Humidity: 85%   Direction: NA
Pressure: 30.28"   Gusts: NA
Location:  40.2107°N, 85.182°W
Report Text: KMIE 200053Z 00000KT 7SM OVC029 M02/M04 A3028 RMK AO2 SLP263 T10171039 $
Loading
Personal Weather Stations






























Interactive Weather Map New forecast layout! Learn more

10-Day Weather Forecast

Advertisements
Track Severe Weather on mobile